sensor_id;sensor_type;location;lat;lon;timestamp;pressure;altitude;pressure_sealevel;temperature;humidity
59831;BME280;45711;50.108;13.712;2023-03-12T00:04:43;97416.72;;;-4.20;86.92
59831;BME280;45711;50.108;13.712;2023-03-12T00:07:16;97416.06;;;-4.36;87.04
59831;BME280;45711;50.108;13.712;2023-03-12T00:10:17;97424.16;;;-4.24;87.51
59831;BME280;45711;50.108;13.712;2023-03-12T00:13:04;97426.94;;;-4.32;87.28
59831;BME280;45711;50.108;13.712;2023-03-12T00:15:43;97422.69;;;-4.40;87.15
59831;BME280;45711;50.108;13.712;2023-03-12T00:18:44;97420.66;;;-4.44;87.62
59831;BME280;45711;50.108;13.712;2023-03-12T00:21:15;97422.44;;;-4.51;88.06
59831;BME280;45711;50.108;13.712;2023-03-12T00:23:53;97437.09;;;-4.50;87.90
59831;BME280;45711;50.108;13.712;2023-03-12T00:26:22;97438.06;;;-4.58;87.39
59831;BME280;45711;50.108;13.712;2023-03-12T00:32:16;97445.72;;;-4.57;87.95
59831;BME280;45711;50.108;13.712;2023-03-12T00:38:21;97444.53;;;-4.54;87.78
59831;BME280;45711;50.108;13.712;2023-03-12T00:40:58;97441.69;;;-4.59;87.92
59831;BME280;45711;50.108;13.712;2023-03-12T00:44:01;97430.88;;;-4.56;88.12
59831;BME280;45711;50.108;13.712;2023-03-12T00:49:35;97443.91;;;-4.56;88.22
59831;BME280;45711;50.108;13.712;2023-03-12T00:52:13;97454.66;;;-4.38;88.48
59831;BME280;45711;50.108;13.712;2023-03-12T00:55:19;97451.22;;;-4.38;86.99
59831;BME280;45711;50.108;13.712;2023-03-12T00:58:02;97448.56;;;-4.45;87.86
59831;BME280;45711;50.108;13.712;2023-03-12T01:03:55;97459.53;;;-4.21;86.65
59831;BME280;45711;50.108;13.712;2023-03-12T01:06:29;97458.44;;;-4.47;87.03
59831;BME280;45711;50.108;13.712;2023-03-12T01:09:09;97451.97;;;-4.51;86.23
59831;BME280;45711;50.108;13.712;2023-03-12T01:11:51;97450.38;;;-4.52;86.83
59831;BME280;45711;50.108;13.712;2023-03-12T01:14:31;97457.00;;;-4.49;87.32
59831;BME280;45711;50.108;13.712;2023-03-12T01:17:08;97458.72;;;-4.70;87.09
59831;BME280;45711;50.108;13.712;2023-03-12T01:19:50;97456.69;;;-4.74;87.43
59831;BME280;45711;50.108;13.712;2023-03-12T01:22:18;97459.66;;;-4.43;87.36
59831;BME280;45711;50.108;13.712;2023-03-12T01:25:16;97459.97;;;-4.59;87.21
59831;BME280;45711;50.108;13.712;2023-03-12T01:27:56;97461.69;;;-4.73;87.31
59831;BME280;45711;50.108;13.712;2023-03-12T01:30:58;97457.81;;;-4.84;87.55
59831;BME280;45711;50.108;13.712;2023-03-12T01:33:51;97469.25;;;-4.85;87.83
59831;BME280;45711;50.108;13.712;2023-03-12T01:36:24;97455.88;;;-5.03;88.09
59831;BME280;45711;50.108;13.712;2023-03-12T01:41:58;97464.22;;;-4.86;87.88
59831;BME280;45711;50.108;13.712;2023-03-12T01:44:53;97461.19;;;-4.90;87.70
59831;BME280;45711;50.108;13.712;2023-03-12T01:48:15;97462.13;;;-4.97;87.40
59831;BME280;45711;50.108;13.712;2023-03-12T01:50:51;97470.09;;;-5.06;87.56
59831;BME280;45711;50.108;13.712;2023-03-12T01:53:30;97463.94;;;-4.98;87.95
59831;BME280;45711;50.108;13.712;2023-03-12T01:56:39;97474.38;;;-4.98;87.18
59831;BME280;45711;50.108;13.712;2023-03-12T01:59:28;97467.97;;;-5.23;87.30
59831;BME280;45711;50.108;13.712;2023-03-12T02:02:14;97470.34;;;-5.28;88.18
59831;BME280;45711;50.108;13.712;2023-03-12T02:04:50;97465.22;;;-5.15;88.43
59831;BME280;45711;50.108;13.712;2023-03-12T02:07:41;97466.16;;;-5.23;88.81
59831;BME280;45711;50.108;13.712;2023-03-12T02:10:17;97476.59;;;-5.23;88.67
59831;BME280;45711;50.108;13.712;2023-03-12T02:12:58;97479.09;;;-5.36;88.74
59831;BME280;45711;50.108;13.712;2023-03-12T02:16:05;97468.75;;;-5.29;89.43
59831;BME280;45711;50.108;13.712;2023-03-12T02:24:42;97480.03;;;-5.22;88.52
59831;BME280;45711;50.108;13.712;2023-03-12T02:27:30;97484.44;;;-5.23;88.91
59831;BME280;45711;50.108;13.712;2023-03-12T02:30:07;97474.31;;;-5.33;88.65
59831;BME280;45711;50.108;13.712;2023-03-12T02:33:06;97477.13;;;-5.34;88.46
59831;BME280;45711;50.108;13.712;2023-03-12T02:35:58;97480.41;;;-5.25;89.29
59831;BME280;45711;50.108;13.712;2023-03-12T02:39:02;97473.31;;;-5.32;88.41
59831;BME280;45711;50.108;13.712;2023-03-12T02:41:47;97480.75;;;-5.35;88.61
59831;BME280;45711;50.108;13.712;2023-03-12T02:44:38;97487.31;;;-5.18;88.88
59831;BME280;45711;50.108;13.712;2023-03-12T02:47:44;97487.13;;;-5.38;88.41
59831;BME280;45711;50.108;13.712;2023-03-12T02:50:24;97484.06;;;-5.41;88.97
59831;BME280;45711;50.108;13.712;2023-03-12T02:52:58;97475.00;;;-5.45;89.35
59831;BME280;45711;50.108;13.712;2023-03-12T02:55:26;97484.03;;;-5.48;88.67
59831;BME280;45711;50.108;13.712;2023-03-12T02:57:58;97486.78;;;-5.28;89.31
59831;BME280;45711;50.108;13.712;2023-03-12T03:00:27;97485.69;;;-5.40;89.03
59831;BME280;45711;50.108;13.712;2023-03-12T03:03:01;97486.25;;;-5.45;89.06
59831;BME280;45711;50.108;13.712;2023-03-12T03:05:38;97477.53;;;-5.09;90.21
59831;BME280;45711;50.108;13.712;2023-03-12T03:08:06;97483.34;;;-5.07;88.96
59831;BME280;45711;50.108;13.712;2023-03-12T03:10:32;97476.91;;;-5.11;90.41
59831;BME280;45711;50.108;13.712;2023-03-12T03:13:02;97484.81;;;-4.98;89.00
59831;BME280;45711;50.108;13.712;2023-03-12T03:15:28;97489.03;;;-4.97;89.19
59831;BME280;45711;50.108;13.712;2023-03-12T03:18:11;97494.94;;;-4.88;88.42
59831;BME280;45711;50.108;13.712;2023-03-12T03:20:54;97506.25;;;-5.09;86.89
59831;BME280;45711;50.108;13.712;2023-03-12T03:23:28;97498.09;;;-5.21;88.37
59831;BME280;45711;50.108;13.712;2023-03-12T03:26:23;97503.94;;;-5.40;89.62
59831;BME280;45711;50.108;13.712;2023-03-12T03:29:09;97504.22;;;-5.35;88.80
59831;BME280;45711;50.108;13.712;2023-03-12T03:32:06;97506.31;;;-5.45;88.94
59831;BME280;45711;50.108;13.712;2023-03-12T03:34:50;97504.22;;;-5.57;88.56
59831;BME280;45711;50.108;13.712;2023-03-12T03:37:21;97511.09;;;-5.49;88.42
59831;BME280;45711;50.108;13.712;2023-03-12T03:40:02;97508.19;;;-5.39;88.51
59831;BME280;45711;50.108;13.712;2023-03-12T03:42:45;97525.81;;;-5.41;88.70
59831;BME280;45711;50.108;13.712;2023-03-12T03:45:16;97533.06;;;-5.58;88.36
59831;BME280;45711;50.108;13.712;2023-03-12T03:50:39;97535.81;;;-5.81;88.67
59831;BME280;45711;50.108;13.712;2023-03-12T03:53:12;97529.94;;;-5.68;89.33
59831;BME280;45711;50.108;13.712;2023-03-12T03:55:49;97539.13;;;-5.72;88.51
59831;BME280;45711;50.108;13.712;2023-03-12T03:58:17;97536.50;;;-5.94;89.27
59831;BME280;45711;50.108;13.712;2023-03-12T04:00:57;97543.06;;;-5.98;89.14
59831;BME280;45711;50.108;13.712;2023-03-12T04:03:36;97545.41;;;-5.67;89.96
59831;BME280;45711;50.108;13.712;2023-03-12T04:06:03;97551.09;;;-5.78;88.95
59831;BME280;45711;50.108;13.712;2023-03-12T04:08:35;97544.00;;;-5.84;88.80
59831;BME280;45711;50.108;13.712;2023-03-12T04:11:11;97541.47;;;-5.99;89.08
59831;BME280;45711;50.108;13.712;2023-03-12T04:13:44;97544.28;;;-6.00;88.54
59831;BME280;45711;50.108;13.712;2023-03-12T04:16:18;97537.34;;;-6.08;88.74
59831;BME280;45711;50.108;13.712;2023-03-12T04:19:08;97541.66;;;-6.15;89.46
59831;BME280;45711;50.108;13.712;2023-03-12T04:21:43;97534.00;;;-6.02;89.43
59831;BME280;45711;50.108;13.712;2023-03-12T04:24:16;97538.88;;;-5.99;89.24
59831;BME280;45711;50.108;13.712;2023-03-12T04:26:58;97538.66;;;-5.97;89.36
59831;BME280;45711;50.108;13.712;2023-03-12T04:29:31;97541.13;;;-5.96;89.65
59831;BME280;45711;50.108;13.712;2023-03-12T04:32:05;97541.47;;;-5.99;89.62
59831;BME280;45711;50.108;13.712;2023-03-12T04:34:31;97537.41;;;-6.01;89.22
59831;BME280;45711;50.108;13.712;2023-03-12T04:37:05;97534.09;;;-6.10;88.96
59831;BME280;45711;50.108;13.712;2023-03-12T04:39:38;97531.31;;;-5.94;89.77
59831;BME280;45711;50.108;13.712;2023-03-12T04:42:20;97532.84;;;-6.14;89.30
59831;BME280;45711;50.108;13.712;2023-03-12T04:44:49;97535.94;;;-6.25;88.85
59831;BME280;45711;50.108;13.712;2023-03-12T04:47:18;97537.63;;;-6.03;88.71
59831;BME280;45711;50.108;13.712;2023-03-12T04:49:53;97553.72;;;-5.78;88.56
59831;BME280;45711;50.108;13.712;2023-03-12T04:52:20;97552.94;;;-5.93;88.96
59831;BME280;45711;50.108;13.712;2023-03-12T04:55:03;97556.09;;;-5.98;89.01
59831;BME280;45711;50.108;13.712;2023-03-12T04:57:35;97554.88;;;-6.17;88.93
59831;BME280;45711;50.108;13.712;2023-03-12T05:00:06;97550.75;;;-6.26;88.73
59831;BME280;45711;50.108;13.712;2023-03-12T05:02:39;97558.84;;;-6.21;89.13
59831;BME280;45711;50.108;13.712;2023-03-12T05:05:05;97560.50;;;-5.98;89.14
59831;BME280;45711;50.108;13.712;2023-03-12T05:07:35;97559.44;;;-6.04;89.31
59831;BME280;45711;50.108;13.712;2023-03-12T05:10:04;97560.91;;;-6.16;88.88
59831;BME280;45711;50.108;13.712;2023-03-12T05:12:32;97558.38;;;-6.24;88.47
59831;BME280;45711;50.108;13.712;2023-03-12T05:15:04;97564.41;;;-6.39;88.73
59831;BME280;45711;50.108;13.712;2023-03-12T05:17:34;97553.59;;;-6.36;89.29
59831;BME280;45711;50.108;13.712;2023-03-12T05:20:01;97557.94;;;-6.28;88.90
59831;BME280;45711;50.108;13.712;2023-03-12T05:22:43;97552.81;;;-6.21;89.82
59831;BME280;45711;50.108;13.712;2023-03-12T05:25:19;97565.00;;;-6.07;88.54
59831;BME280;45711;50.108;13.712;2023-03-12T05:27:57;97555.22;;;-6.20;89.09
59831;BME280;45711;50.108;13.712;2023-03-12T05:30:27;97562.75;;;-6.10;89.16
59831;BME280;45711;50.108;13.712;2023-03-12T05:32:58;97560.97;;;-5.95;90.03
59831;BME280;45711;50.108;13.712;2023-03-12T05:35:38;97568.09;;;-5.82;88.64
59831;BME280;45711;50.108;13.712;2023-03-12T05:38:20;97574.78;;;-5.58;89.45
59831;BME280;45711;50.108;13.712;2023-03-12T05:41:05;97571.56;;;-5.60;87.44
59831;BME280;45711;50.108;13.712;2023-03-12T05:43:40;97561.97;;;-5.53;88.69
59831;BME280;45711;50.108;13.712;2023-03-12T05:46:13;97565.97;;;-5.36;87.79
59831;BME280;45711;50.108;13.712;2023-03-12T05:51:50;97570.91;;;-5.26;89.42
59831;BME280;45711;50.108;13.712;2023-03-12T05:54:23;97561.31;;;-4.97;88.47
59831;BME280;45711;50.108;13.712;2023-03-12T05:56:58;97568.97;;;-4.96;87.73
59831;BME280;45711;50.108;13.712;2023-03-12T05:59:29;97569.22;;;-4.91;88.13
59831;BME280;45711;50.108;13.712;2023-03-12T06:01:57;97571.81;;;-4.91;87.54
59831;BME280;45711;50.108;13.712;2023-03-12T06:04:33;97577.41;;;-4.94;88.65
59831;BME280;45711;50.108;13.712;2023-03-12T06:07:05;97571.56;;;-4.74;89.49
59831;BME280;45711;50.108;13.712;2023-03-12T06:10:06;97575.31;;;-4.49;88.52
59831;BME280;45711;50.108;13.712;2023-03-12T06:12:37;97582.13;;;-4.26;88.00
59831;BME280;45711;50.108;13.712;2023-03-12T06:15:14;97570.53;;;-4.17;87.49
59831;BME280;45711;50.108;13.712;2023-03-12T06:17:46;97577.00;;;-4.07;87.02
59831;BME280;45711;50.108;13.712;2023-03-12T06:20:21;97575.59;;;-4.09;87.34
59831;BME280;45711;50.108;13.712;2023-03-12T06:23:22;97574.81;;;-4.03;87.58
59831;BME280;45711;50.108;13.712;2023-03-12T06:26:01;97578.28;;;-3.89;88.05
59831;BME280;45711;50.108;13.712;2023-03-12T06:29:06;97579.72;;;-3.80;86.89
59831;BME280;45711;50.108;13.712;2023-03-12T06:31:44;97585.44;;;-3.63;87.40
59831;BME280;45711;50.108;13.712;2023-03-12T06:37:30;97580.66;;;-3.46;86.21
59831;BME280;45711;50.108;13.712;2023-03-12T06:40:11;97577.28;;;-3.27;85.43
59831;BME280;45711;50.108;13.712;2023-03-12T06:43:02;97587.41;;;-2.84;84.15
59831;BME280;45711;50.108;13.712;2023-03-12T06:46:13;97582.19;;;-2.64;83.79
59831;BME280;45711;50.108;13.712;2023-03-12T06:49:01;97589.63;;;-2.61;84.01
59831;BME280;45711;50.108;13.712;2023-03-12T06:51:58;97592.44;;;-0.88;79.63
59831;BME280;45711;50.108;13.712;2023-03-12T07:01:54;97604.94;;;-0.84;76.94
59831;BME280;45711;50.108;13.712;2023-03-12T07:04:52;97607.19;;;-0.37;75.81
59831;BME280;45711;50.108;13.712;2023-03-12T07:07:35;97607.63;;;-0.40;74.42
59831;BME280;45711;50.108;13.712;2023-03-12T07:10:30;97601.44;;;-0.53;74.66
59831;BME280;45711;50.108;13.712;2023-03-12T07:15:34;97609.00;;;-0.13;74.85
59831;BME280;45711;50.108;13.712;2023-03-12T07:16:53;97594.69;;;0.02;72.80
59831;BME280;45711;50.108;13.712;2023-03-12T07:28:49;97597.13;;;-0.65;78.43
59831;BME280;45711;50.108;13.712;2023-03-12T07:31:29;97598.13;;;0.02;75.17
59831;BME280;45711;50.108;13.712;2023-03-12T07:34:07;97593.94;;;1.75;70.48
59831;BME280;45711;50.108;13.712;2023-03-12T07:41:22;97603.69;;;1.09;70.92
59831;BME280;45711;50.108;13.712;2023-03-12T07:47:06;97598.09;;;1.17;71.50
59831;BME280;45711;50.108;13.712;2023-03-12T07:50:59;97596.28;;;2.35;67.49
59831;BME280;45711;50.108;13.712;2023-03-12T08:44:46;97584.31;;;6.19;48.50
59831;BME280;45711;50.108;13.712;2023-03-12T09:51:15;97559.84;;;4.83;60.46
59831;BME280;45711;50.108;13.712;2023-03-12T09:54:20;97551.28;;;4.49;55.28
59831;BME280;45711;50.108;13.712;2023-03-12T09:57:20;97549.13;;;4.24;61.24
59831;BME280;45711;50.108;13.712;2023-03-12T09:59:55;97552.03;;;4.44;56.70
59831;BME280;45711;50.108;13.712;2023-03-12T10:06:27;97548.81;;;4.42;61.66
59831;BME280;45711;50.108;13.712;2023-03-12T10:22:59;97549.59;;;4.43;56.81
59831;BME280;45711;50.108;13.712;2023-03-12T10:26:41;97542.28;;;4.50;57.16
59831;BME280;45711;50.108;13.712;2023-03-12T10:29:29;97531.72;;;4.55;59.37
59831;BME280;45711;50.108;13.712;2023-03-12T10:34:48;97527.44;;;4.49;63.39
59831;BME280;45711;50.108;13.712;2023-03-12T10:36:16;97532.91;;;4.42;62.24
59831;BME280;45711;50.108;13.712;2023-03-12T16:34:16;97281.13;;;4.00;80.43
59831;BME280;45711;50.108;13.712;2023-03-12T16:36:47;97286.06;;;3.91;81.08
59831;BME280;45711;50.108;13.712;2023-03-12T16:39:21;97290.03;;;3.89;81.53
59831;BME280;45711;50.108;13.712;2023-03-12T16:41:48;97290.53;;;3.86;81.95
59831;BME280;45711;50.108;13.712;2023-03-12T16:44:20;97295.59;;;4.19;80.28
59831;BME280;45711;50.108;13.712;2023-03-12T16:47:03;97293.03;;;4.29;79.97
59831;BME280;45711;50.108;13.712;2023-03-12T16:49:31;97297.47;;;4.56;78.39
59831;BME280;45711;50.108;13.712;2023-03-12T16:52:01;97302.66;;;4.41;79.24
59831;BME280;45711;50.108;13.712;2023-03-12T16:54:29;97309.91;;;4.50;78.66
59831;BME280;45711;50.108;13.712;2023-03-12T16:57:20;97313.38;;;4.24;80.59
59831;BME280;45711;50.108;13.712;2023-03-12T16:59:49;97310.94;;;4.49;79.01
59831;BME280;45711;50.108;13.712;2023-03-12T17:02:17;97309.56;;;4.42;80.32
59831;BME280;45711;50.108;13.712;2023-03-12T17:04:55;97322.38;;;4.55;78.46
59831;BME280;45711;50.108;13.712;2023-03-12T17:07:21;97320.34;;;4.67;77.97
59831;BME280;45711;50.108;13.712;2023-03-12T17:10:02;97326.72;;;4.66;77.66
59831;BME280;45711;50.108;13.712;2023-03-12T17:12:36;97336.56;;;4.71;77.86
59831;BME280;45711;50.108;13.712;2023-03-12T17:15:05;97340.75;;;4.67;78.23
59831;BME280;45711;50.108;13.712;2023-03-12T17:17:55;97341.38;;;4.79;76.99
59831;BME280;45711;50.108;13.712;2023-03-12T17:23:56;97341.59;;;4.72;78.16
59831;BME280;45711;50.108;13.712;2023-03-12T17:33:30;97361.25;;;4.82;78.24
59831;BME280;45711;50.108;13.712;2023-03-12T17:55:38;97357.53;;;4.77;77.62
59831;BME280;45711;50.108;13.712;2023-03-12T17:58:33;97359.59;;;4.70;78.83
59831;BME280;45711;50.108;13.712;2023-03-12T18:05:08;97381.16;;;4.79;78.11
59831;BME280;45711;50.108;13.712;2023-03-12T18:11:40;97352.00;;;4.79;78.16
59831;BME280;45711;50.108;13.712;2023-03-12T18:14:21;97355.47;;;4.85;77.90
59831;BME280;45711;50.108;13.712;2023-03-12T18:17:27;97356.25;;;4.85;78.07
59831;BME280;45711;50.108;13.712;2023-03-12T18:20:32;97380.63;;;4.82;77.60
59831;BME280;45711;50.108;13.712;2023-03-12T18:28:56;97361.22;;;4.76;78.73
59831;BME280;45711;50.108;13.712;2023-03-12T18:29:31;97368.63;;;4.74;78.45
59831;BME280;45711;50.108;13.712;2023-03-12T18:38:53;97379.00;;;4.76;79.07
59831;BME280;45711;50.108;13.712;2023-03-12T18:41:52;97378.19;;;4.75;78.67
59831;BME280;45711;50.108;13.712;2023-03-12T21:17:26;97391.47;;;4.81;81.90
59831;BME280;45711;50.108;13.712;2023-03-12T21:20:19;97394.91;;;4.76;82.51
59831;BME280;45711;50.108;13.712;2023-03-12T21:22:50;97391.69;;;4.74;82.81
59831;BME280;45711;50.108;13.712;2023-03-12T21:25:27;97389.91;;;4.79;83.50
59831;BME280;45711;50.108;13.712;2023-03-12T21:28:42;97391.47;;;4.81;82.34
59831;BME280;45711;50.108;13.712;2023-03-12T21:31:18;97383.47;;;4.70;83.07
59831;BME280;45711;50.108;13.712;2023-03-12T21:34:14;97394.91;;;4.76;83.57
59831;BME280;45711;50.108;13.712;2023-03-12T21:37:10;97396.19;;;4.73;83.57
59831;BME280;45711;50.108;13.712;2023-03-12T21:39:52;97402.28;;;4.74;83.84
59831;BME280;45711;50.108;13.712;2023-03-12T21:42:44;97397.00;;;4.74;83.71
59831;BME280;45711;50.108;13.712;2023-03-12T21:45:45;97399.69;;;4.79;84.22
59831;BME280;45711;50.108;13.712;2023-03-12T21:51:41;97399.97;;;4.83;83.92
59831;BME280;45711;50.108;13.712;2023-03-12T21:54:11;97396.78;;;4.81;83.56
59831;BME280;45711;50.108;13.712;2023-03-12T21:56:47;97396.78;;;4.81;84.26
59831;BME280;45711;50.108;13.712;2023-03-12T21:59:23;97394.66;;;4.83;84.26
59831;BME280;45711;50.108;13.712;2023-03-12T22:01:58;97381.19;;;4.84;84.19
59831;BME280;45711;50.108;13.712;2023-03-12T22:04:29;97386.47;;;4.84;83.85
59831;BME280;45711;50.108;13.712;2023-03-12T22:07:01;97375.09;;;4.84;82.96
59831;BME280;45711;50.108;13.712;2023-03-12T22:09:40;97375.59;;;4.81;83.58
59831;BME280;45711;50.108;13.712;2023-03-12T22:12:20;97377.47;;;4.85;83.17
59831;BME280;45711;50.108;13.712;2023-03-12T22:17:54;97366.13;;;4.95;86.55
59831;BME280;45711;50.108;13.712;2023-03-12T22:20:50;97369.53;;;4.90;83.39
59831;BME280;45711;50.108;13.712;2023-03-12T22:23:30;97353.34;;;4.87;84.19
59831;BME280;45711;50.108;13.712;2023-03-12T22:26:05;97348.31;;;4.85;83.60
59831;BME280;45711;50.108;13.712;2023-03-12T22:28:31;97344.34;;;4.88;82.29
59831;BME280;45711;50.108;13.712;2023-03-12T22:31:09;97350.97;;;4.90;85.38
59831;BME280;45711;50.108;13.712;2023-03-12T22:33:35;97346.44;;;4.86;83.47
59831;BME280;45711;50.108;13.712;2023-03-12T22:36:15;97355.00;;;4.93;84.53
59831;BME280;45711;50.108;13.712;2023-03-12T22:39:07;97335.88;;;4.91;83.01
59831;BME280;45711;50.108;13.712;2023-03-12T22:42:02;97346.19;;;4.87;83.78
59831;BME280;45711;50.108;13.712;2023-03-12T22:44:48;97336.63;;;4.86;82.82
59831;BME280;45711;50.108;13.712;2023-03-12T22:47:23;97329.75;;;4.85;83.54
59831;BME280;45711;50.108;13.712;2023-03-12T22:49:50;97333.19;;;4.86;83.60
59831;BME280;45711;50.108;13.712;2023-03-12T22:52:26;97330.84;;;4.89;83.32
59831;BME280;45711;50.108;13.712;2023-03-12T22:55:02;97328.16;;;4.84;83.94
59831;BME280;45711;50.108;13.712;2023-03-12T22:57:37;97310.13;;;4.86;85.19
59831;BME280;45711;50.108;13.712;2023-03-12T23:03:01;97313.03;;;4.85;85.15
59831;BME280;45711;50.108;13.712;2023-03-12T23:05:33;97313.56;;;4.87;86.91
59831;BME280;45711;50.108;13.712;2023-03-12T23:08:13;97305.63;;;4.87;87.23
59831;BME280;45711;50.108;13.712;2023-03-12T23:10:57;97308.06;;;4.93;91.69
59831;BME280;45711;50.108;13.712;2023-03-12T23:13:38;97309.06;;;4.87;87.73
59831;BME280;45711;50.108;13.712;2023-03-12T23:16:13;97311.22;;;4.90;87.24
59831;BME280;45711;50.108;13.712;2023-03-12T23:18:47;97314.66;;;4.91;87.74
59831;BME280;45711;50.108;13.712;2023-03-12T23:21:35;97306.94;;;4.84;86.92
59831;BME280;45711;50.108;13.712;2023-03-12T23:24:13;97322.09;;;4.89;86.94
59831;BME280;45711;50.108;13.712;2023-03-12T23:26:48;97318.88;;;4.87;86.79
59831;BME280;45711;50.108;13.712;2023-03-12T23:29:48;97314.44;;;4.92;90.17
59831;BME280;45711;50.108;13.712;2023-03-12T23:32:41;97312.53;;;4.88;87.66
59831;BME280;45711;50.108;13.712;2023-03-12T23:35:23;97311.78;;;4.97;90.21
59831;BME280;45711;50.108;13.712;2023-03-12T23:38:19;97315.75;;;4.95;86.69
59831;BME280;45711;50.108;13.712;2023-03-12T23:40:45;97319.19;;;4.95;85.45
59831;BME280;45711;50.108;13.712;2023-03-12T23:43:29;97321.28;;;4.88;85.07
59831;BME280;45711;50.108;13.712;2023-03-12T23:48:44;97329.00;;;4.95;86.06
59831;BME280;45711;50.108;13.712;2023-03-12T23:51:39;97326.31;;;4.90;84.51
59831;BME280;45711;50.108;13.712;2023-03-12T23:54:10;97326.63;;;4.93;85.09
59831;BME280;45711;50.108;13.712;2023-03-12T23:56:43;97327.72;;;4.97;87.94
59831;BME280;45711;50.108;13.712;2023-03-12T23:59:22;97331.66;;;4.95;84.42
